Terminal Aerodrome Forecast
Issued by NWS Springfield, MO

Home | Current Version | Previous Version | Text Only | Print | Product List | Glossary On
Versions: 1 2 3 4 5 6 7 8 9 10 11 12 13 14 15 16 17 18 19 20 21 22 23 24 25 26 27 28 29 30 31 32 33 34 35
000
FTUS43 KSGF 171700
TAFSGF
TAF
KSGF 171720Z 1718/1818 18010KT 5SM BR VCTS SCT012 BKN040CB
      TEMPO 1718/1719 2SM -TSRA OVC020CB
     FM172000 22008KT P6SM -SHRA SCT040 BKN060
     FM172300 VRB04KT 5SM BR VCTS SCT010CB OVC100
     FM180500 VRB03KT 1SM BR BKN002 OVC005
     FM181600 11006KT 5SM BR OVC015=

USA.gov is the U.S. government's official web portal to all federal, state and local government web resources and services.